createdAt,value
2022-11-19T00:03:31.687Z,97317.84
2022-11-19T00:08:33.623Z,97327.91
2022-11-19T00:13:35.680Z,97323.88
2022-11-19T00:18:37.239Z,97325.72
2022-11-19T00:23:39.669Z,97322.63
2022-11-19T00:28:41.913Z,97328.63
2022-11-19T00:33:45.071Z,97330.72
2022-11-19T00:38:46.414Z,97332.56
2022-11-19T00:43:48.288Z,97336.50
2022-11-19T00:48:51.786Z,97345.44
2022-11-19T00:53:53.532Z,97353.91
2022-11-19T00:58:55.176Z,97345.81
2022-11-19T01:03:56.568Z,97352.50
2022-11-19T01:08:58.533Z,97357.66
2022-11-19T01:14:01.108Z,97354.09
2022-11-19T01:19:03.966Z,97367.53
2022-11-19T01:24:06.088Z,97360.88
2022-11-19T01:29:07.565Z,97359.44
2022-11-19T01:34:08.973Z,97367.06
2022-11-19T01:39:10.387Z,97364.19
2022-11-19T01:44:49.581Z,97364.66
2022-11-19T01:49:51.255Z,97378.72
2022-11-19T01:54:55.432Z,97388.34
2022-11-19T01:59:56.961Z,97398.47
2022-11-19T02:04:58.493Z,97397.06
2022-11-19T02:10:02.443Z,97401.78
2022-11-19T02:15:22.047Z,97397.41
2022-11-19T02:20:49.902Z,97390.63
2022-11-19T02:25:51.262Z,97395.38
2022-11-19T02:30:59.847Z,97388.38
2022-11-19T02:36:14.064Z,97392.78
2022-11-19T02:41:33.864Z,97398.22
2022-11-19T02:46:35.795Z,97399.28
2022-11-19T02:51:37.701Z,97396.41
2022-11-19T02:56:52.816Z,97389.75
2022-11-19T03:02:12.903Z,97388.34
2022-11-19T03:07:17.928Z,97385.44
2022-11-19T03:12:47.128Z,97394.34
2022-11-19T03:18:23.571Z,97412.91
2022-11-19T03:23:31.536Z,97410.28
2022-11-19T03:28:37.347Z,97414.56
2022-11-19T03:33:44.453Z,97420.63
2022-11-19T03:38:50.706Z,97434.03
2022-11-19T03:43:58.226Z,97436.38
2022-11-19T03:49:02.151Z,97437.09
2022-11-19T03:54:03.872Z,97427.91
2022-11-19T03:59:08.456Z,97447.34
2022-11-19T04:04:28.593Z,97445.91
2022-11-19T04:09:30.012Z,97447.19
2022-11-19T04:14:31.500Z,97445.41
2022-11-19T04:19:32.889Z,97455.38
2022-11-19T04:24:34.580Z,97463.53
2022-11-19T04:29:36.112Z,97449.53
2022-11-19T04:34:37.576Z,97463.16
2022-11-19T04:39:38.998Z,97457.53
2022-11-19T04:44:40.459Z,97453.47
2022-11-19T04:49:41.965Z,97457.97
2022-11-19T04:54:43.347Z,97461.53
2022-11-19T04:59:44.768Z,97455.78
2022-11-19T05:04:46.195Z,97459.34
2022-11-19T05:09:47.627Z,97467.41
2022-11-19T05:14:49.088Z,97463.22
2022-11-19T05:19:50.484Z,97468.06
2022-11-19T05:24:52.079Z,97465.75
2022-11-19T05:29:53.565Z,97465.88
2022-11-19T05:34:55.012Z,97474.31
2022-11-19T05:39:56.428Z,97477.88
2022-11-19T05:44:57.962Z,97487.72
2022-11-19T05:49:59.575Z,97493.16
2022-11-19T05:55:01.389Z,97489.19
2022-11-19T06:00:03.222Z,97491.66
2022-11-19T06:05:13.672Z,97500.25
2022-11-19T06:10:15.263Z,97498.59
2022-11-19T06:15:16.992Z,97501.28
2022-11-19T06:20:21.496Z,97510.16
2022-11-19T06:25:23.149Z,97514.75
2022-11-19T06:30:24.556Z,97521.75
2022-11-19T06:35:26.031Z,97527.59
2022-11-19T06:40:27.404Z,97533.88
2022-11-19T06:45:28.871Z,97529.94
2022-11-19T06:50:30.656Z,97525.63
2022-11-19T06:55:32.087Z,97532.00
2022-11-19T07:00:34.828Z,97532.22
2022-11-19T07:05:36.286Z,97543.91
2022-11-19T07:10:37.786Z,97545.88
2022-11-19T07:15:39.283Z,97548.81
2022-11-19T07:20:41.296Z,97544.09
2022-11-19T07:25:42.696Z,97541.41
2022-11-19T07:30:44.198Z,97541.00
2022-11-19T07:35:45.710Z,97542.56
2022-11-19T07:40:55.836Z,97542.78
2022-11-19T07:45:57.241Z,97538.44
2022-11-19T07:50:58.650Z,97529.88
2022-11-19T07:56:00.947Z,97528.94
2022-11-19T08:01:13.954Z,97535.91
2022-11-19T08:06:17.306Z,97541.94
2022-11-19T08:11:19.147Z,97551.53
2022-11-19T08:16:39.371Z,97544.22
2022-11-19T08:21:43.318Z,97549.00
2022-11-19T08:26:45.689Z,97538.16
2022-11-19T08:31:49.483Z,97536.81
2022-11-19T08:36:51.031Z,97536.66
2022-11-19T08:42:11.041Z,97538.59
2022-11-19T08:47:12.491Z,97538.75
2022-11-19T08:52:14.439Z,97532.91
2022-11-19T08:57:15.866Z,97533.91
2022-11-19T09:02:17.371Z,97528.69
2022-11-19T09:07:19.274Z,97533.59
2022-11-19T09:12:20.738Z,97538.63
2022-11-19T09:17:22.187Z,97543.75
2022-11-19T09:22:24.218Z,97537.31
2022-11-19T09:27:25.758Z,97546.50
2022-11-19T09:32:28.908Z,97538.25
2022-11-19T09:37:34.069Z,97535.88
2022-11-19T09:43:05.141Z,97545.28
2022-11-19T09:48:14.177Z,97553.28
2022-11-19T09:53:19.151Z,97546.34
2022-11-19T09:58:37.451Z,97547.97
2022-11-19T10:03:44.805Z,97545.56
2022-11-19T10:09:09.487Z,97542.91
2022-11-19T10:14:17.596Z,97545.75
2022-11-19T10:19:32.760Z,97546.66
2022-11-19T10:24:50.611Z,97557.13
2022-11-19T10:29:56.417Z,97548.47
2022-11-19T10:35:06.363Z,97545.53
2022-11-19T10:40:23.799Z,97545.34
2022-11-19T10:45:27.602Z,97537.78
2022-11-19T10:50:29.151Z,97531.91
2022-11-19T10:55:37.594Z,97535.28
2022-11-19T11:00:41.308Z,97528.69
2022-11-19T11:06:07.081Z,97532.47
2022-11-19T11:11:08.559Z,97530.00
2022-11-19T11:16:13.561Z,97520.13
2022-11-19T11:21:36.783Z,97514.16
2022-11-19T11:26:38.859Z,97506.00
2022-11-19T11:31:44.772Z,97507.28
2022-11-19T11:36:46.229Z,97512.41
2022-11-19T11:42:07.082Z,97510.66
2022-11-19T11:47:18.103Z,97496.94
2022-11-19T11:52:28.495Z,97499.44
2022-11-19T11:57:33.664Z,97505.94
2022-11-19T12:02:36.012Z,97492.22
2022-11-19T12:07:50.851Z,97496.78
2022-11-19T12:13:28.401Z,97486.81
2022-11-19T12:18:51.189Z,97482.63
2022-11-19T12:24:06.615Z,97477.53
2022-11-19T12:29:39.110Z,97472.94
2022-11-19T12:34:57.200Z,97464.09
2022-11-19T12:40:36.577Z,97456.59
2022-11-19T12:45:53.457Z,97460.63
2022-11-19T12:51:16.222Z,97458.56
2022-11-19T12:56:43.591Z,97462.56
2022-11-19T13:01:50.534Z,97459.94
2022-11-19T13:07:04.067Z,97451.06
2022-11-19T13:12:09.343Z,97449.28
2022-11-19T13:17:35.293Z,97446.09
2022-11-19T13:22:40.943Z,97444.63
2022-11-19T13:27:44.611Z,97447.53
2022-11-19T13:33:21.812Z,97443.09
2022-11-19T13:38:46.420Z,97445.66
2022-11-19T13:44:17.601Z,97436.41
2022-11-19T13:49:25.800Z,97436.38
2022-11-19T13:54:36.184Z,97436.94
2022-11-19T13:59:49.467Z,97443.88
2022-11-19T14:04:56.654Z,97442.75
2022-11-19T14:10:04.336Z,97453.81
2022-11-19T14:16:19.116Z,97457.91
2022-11-19T14:21:45.077Z,97450.16
2022-11-19T14:26:52.171Z,97451.78
2022-11-19T14:32:00.056Z,97453.97
2022-11-19T14:37:17.044Z,97447.44
2022-11-19T14:42:22.181Z,97454.75
2022-11-19T14:47:28.659Z,97449.19
2022-11-19T14:52:40.059Z,97448.88
2022-11-19T14:57:43.283Z,97451.72
2022-11-19T15:02:48.369Z,97451.81
2022-11-19T15:08:11.578Z,97448.66
2022-11-19T15:13:25.804Z,97442.53
2022-11-19T15:18:37.602Z,97440.00
2022-11-19T15:24:15.019Z,97442.66
2022-11-19T15:29:35.272Z,97446.06
2022-11-19T15:35:13.662Z,97443.69
2022-11-19T15:40:24.152Z,97448.28
2022-11-19T15:45:27.141Z,97443.53
2022-11-19T15:50:28.989Z,97445.94
2022-11-19T15:55:31.741Z,97458.84
2022-11-19T16:00:47.603Z,97447.31
2022-11-19T16:06:02.478Z,97449.84
2022-11-19T16:11:23.379Z,97455.00
2022-11-19T16:16:47.508Z,97450.56
2022-11-19T16:22:15.251Z,97442.81
2022-11-19T16:33:49.921Z,97440.47
2022-11-19T16:39:01.947Z,97437.84
2022-11-19T16:44:11.633Z,97432.72
2022-11-19T16:50:46.644Z,97427.97
2022-11-19T17:10:07.810Z,97428.72
2022-11-19T17:15:35.451Z,97426.59
2022-11-19T17:27:41.967Z,97432.75
2022-11-19T17:32:56.872Z,97444.78
2022-11-19T17:38:29.959Z,97447.75
2022-11-19T17:48:04.575Z,97443.84
2022-11-19T17:57:13.390Z,97454.28
2022-11-19T18:02:38.946Z,97463.31
2022-11-19T18:14:16.464Z,97469.59
2022-11-19T18:19:26.452Z,97466.50
2022-11-19T18:24:28.477Z,97476.34
2022-11-19T18:29:32.614Z,97484.09
2022-11-19T18:34:35.145Z,97478.63
2022-11-19T18:39:36.615Z,97487.31
2022-11-19T18:44:38.767Z,97473.38
2022-11-19T18:49:40.924Z,97483.41
2022-11-19T18:54:42.532Z,97480.66
2022-11-19T18:59:44.084Z,97474.72
2022-11-19T19:04:50.654Z,97473.38
2022-11-19T19:09:52.610Z,97479.09
2022-11-19T19:14:54.599Z,97477.28
2022-11-19T19:19:56.087Z,97474.91
2022-11-19T19:24:58.501Z,97480.81
2022-11-19T19:30:00.881Z,97481.41
2022-11-19T19:35:02.562Z,97479.47
2022-11-19T19:40:04.658Z,97474.72
2022-11-19T19:45:06.942Z,97476.84
2022-11-19T19:50:08.884Z,97479.91
2022-11-19T19:55:10.456Z,97486.03
2022-11-19T20:00:16.017Z,97487.22
2022-11-19T20:05:24.399Z,97487.25
2022-11-19T20:10:28.379Z,97492.19
2022-11-19T20:15:32.994Z,97495.09
2022-11-19T20:20:42.293Z,97490.69
2022-11-19T20:25:46.646Z,97498.75
2022-11-19T20:30:49.334Z,97492.41
2022-11-19T20:35:53.884Z,97500.09
2022-11-19T20:41:38.063Z,97510.06
2022-11-19T20:52:37.661Z,97502.16
2022-11-19T20:57:44.877Z,97505.28
2022-11-19T21:02:46.486Z,97505.47
2022-11-19T21:07:48.498Z,97491.94
2022-11-19T21:13:02.396Z,97484.78
2022-11-19T21:18:04.098Z,97493.00
2022-11-19T21:23:05.639Z,97480.94
2022-11-19T21:28:09.421Z,97471.19
2022-11-19T21:33:10.979Z,97483.13
2022-11-19T21:38:12.671Z,97477.66
2022-11-19T21:43:14.217Z,97482.53
2022-11-19T21:48:35.313Z,97481.34
2022-11-19T21:53:40.511Z,97480.50
2022-11-19T22:05:23.892Z,97467.44
2022-11-19T22:10:27.873Z,97463.75
2022-11-19T22:15:30.179Z,97465.31
2022-11-19T22:25:48.464Z,97470.28
2022-11-19T22:31:02.838Z,97454.56
2022-11-19T22:36:10.024Z,97459.81
2022-11-19T22:41:17.101Z,97453.38
2022-11-19T22:46:20.776Z,97455.84
2022-11-19T22:51:35.642Z,97455.78
2022-11-19T22:56:42.128Z,97447.31
2022-11-19T23:01:43.669Z,97456.28
2022-11-19T23:06:45.086Z,97443.91
2022-11-19T23:12:05.168Z,97437.63
2022-11-19T23:17:06.799Z,97429.78
2022-11-19T23:22:08.569Z,97433.97
2022-11-19T23:27:09.969Z,97432.97
2022-11-19T23:32:11.347Z,97423.56
2022-11-19T23:37:12.910Z,97434.03
2022-11-19T23:42:14.578Z,97427.56
2022-11-19T23:47:16.004Z,97430.53
2022-11-19T23:52:17.379Z,97426.34
2022-11-19T23:57:18.811Z,97421.56
